sensor_id;sensor_type;location;lat;lon;timestamp;pressure;altitude;pressure_sealevel;temperature;humidity
54856;BME280;40748;53.168;5.800;2022-12-20T00:01:41;101125.56;;;9.00;100.00
54856;BME280;40748;53.168;5.800;2022-12-20T00:04:11;101127.92;;;8.98;100.00
54856;BME280;40748;53.168;5.800;2022-12-20T00:06:41;101128.27;;;9.02;100.00
54856;BME280;40748;53.168;5.800;2022-12-20T00:09:11;101125.53;;;9.03;100.00
54856;BME280;40748;53.168;5.800;2022-12-20T00:11:41;101114.14;;;9.10;100.00
54856;BME280;40748;53.168;5.800;2022-12-20T00:14:11;101112.92;;;9.06;100.00
54856;BME280;40748;53.168;5.800;2022-12-20T00:16:41;101113.45;;;9.04;100.00
54856;BME280;40748;53.168;5.800;2022-12-20T00:19:11;101112.13;;;9.07;100.00
54856;BME280;40748;53.168;5.800;2022-12-20T00:21:41;101110.15;;;9.08;100.00
54856;BME280;40748;53.168;5.800;2022-12-20T00:24:11;101106.14;;;9.13;100.00
54856;BME280;40748;53.168;5.800;2022-12-20T00:26:41;101101.15;;;9.15;100.00
54856;BME280;40748;53.168;5.800;2022-12-20T00:29:11;101103.25;;;9.16;100.00
54856;BME280;40748;53.168;5.800;2022-12-20T00:31:41;101110.42;;;9.11;100.00
54856;BME280;40748;53.168;5.800;2022-12-20T00:34:11;101099.08;;;9.05;100.00
54856;BME280;40748;53.168;5.800;2022-12-20T00:36:41;101104.33;;;9.07;100.00
54856;BME280;40748;53.168;5.800;2022-12-20T00:39:11;101100.97;;;9.13;100.00
54856;BME280;40748;53.168;5.800;2022-12-20T00:41:41;101103.02;;;9.10;100.00
54856;BME280;40748;53.168;5.800;2022-12-20T00:44:11;101093.58;;;9.19;100.00
54856;BME280;40748;53.168;5.800;2022-12-20T00:46:41;101094.59000000001;;;9.11;100.00
54856;BME280;40748;53.168;5.800;2022-12-20T00:51:41;101095.48;;;9.23;100.00
54856;BME280;40748;53.168;5.800;2022-12-20T00:54:11;101091.49;;;9.18;100.00
54856;BME280;40748;53.168;5.800;2022-12-20T00:56:41;101085.67;;;9.21;100.00
54856;BME280;40748;53.168;5.800;2022-12-20T01:01:41;101083.18000000001;;;9.28;100.00
54856;BME280;40748;53.168;5.800;2022-12-20T01:04:11;101076.62;;;9.31;100.00
54856;BME280;40748;53.168;5.800;2022-12-20T01:06:41;101079.15000000001;;;9.33;100.00
54856;BME280;40748;53.168;5.800;2022-12-20T01:09:11;101069.7;;;9.29;100.00
54856;BME280;40748;53.168;5.800;2022-12-20T01:14:12;101073.1;;;9.27;100.00
54856;BME280;40748;53.168;5.800;2022-12-20T01:16:41;101068.14;;;9.28;100.00
54856;BME280;40748;53.168;5.800;2022-12-20T01:19:11;101068.46;;;9.27;100.00
54856;BME280;40748;53.168;5.800;2022-12-20T01:21:41;101077.28;;;9.25;100.00
54856;BME280;40748;53.168;5.800;2022-12-20T01:24:11;101071.51;;;9.24;100.00
54856;BME280;40748;53.168;5.800;2022-12-20T01:26:41;101067.56;;;9.26;100.00
54856;BME280;40748;53.168;5.800;2022-12-20T01:29:11;101073.25;;;9.30;100.00
54856;BME280;40748;53.168;5.800;2022-12-20T01:31:41;101074.95;;;9.28;100.00
54856;BME280;40748;53.168;5.800;2022-12-20T01:34:11;101070.0;;;9.33;100.00
54856;BME280;40748;53.168;5.800;2022-12-20T01:36:41;101050.56;;;9.26;100.00
54856;BME280;40748;53.168;5.800;2022-12-20T01:39:12;101046.23;;;9.23;100.00
54856;BME280;40748;53.168;5.800;2022-12-20T01:41:42;101048.68000000001;;;9.27;100.00
54856;BME280;40748;53.168;5.800;2022-12-20T01:46:41;101048.29999999999;;;9.25;100.00
54856;BME280;40748;53.168;5.800;2022-12-20T01:49:12;101057.59000000001;;;9.21;100.00
54856;BME280;40748;53.168;5.800;2022-12-20T01:51:42;101045.94;;;9.28;100.00
54856;BME280;40748;53.168;5.800;2022-12-20T01:54:11;101051.07;;;9.32;100.00
54856;BME280;40748;53.168;5.800;2022-12-20T01:56:41;101044.45;;;9.34;100.00
54856;BME280;40748;53.168;5.800;2022-12-20T01:59:11;101056.67;;;9.29;100.00
54856;BME280;40748;53.168;5.800;2022-12-20T02:01:41;101049.01999999999;;;9.33;100.00
54856;BME280;40748;53.168;5.800;2022-12-20T02:04:11;101036.77;;;9.31;100.00
54856;BME280;40748;53.168;5.800;2022-12-20T02:06:41;101037.19;;;9.33;100.00
54856;BME280;40748;53.168;5.800;2022-12-20T02:09:11;101036.32;;;9.32;100.00
54856;BME280;40748;53.168;5.800;2022-12-20T02:11:45;101040.99;;;9.35;100.00
54856;BME280;40748;53.168;5.800;2022-12-20T02:14:13;101034.53;;;9.34;100.00
54856;BME280;40748;53.168;5.800;2022-12-20T02:16:42;101029.9;;;9.41;100.00
54856;BME280;40748;53.168;5.800;2022-12-20T02:19:14;101039.37;;;9.32;100.00
54856;BME280;40748;53.168;5.800;2022-12-20T02:21:41;101030.1;;;9.30;100.00
54856;BME280;40748;53.168;5.800;2022-12-20T02:24:17;101031.20999999999;;;9.25;100.00
54856;BME280;40748;53.168;5.800;2022-12-20T02:26:49;101027.89;;;9.31;100.00
54856;BME280;40748;53.168;5.800;2022-12-20T02:29:18;101027.89;;;9.27;100.00
54856;BME280;40748;53.168;5.800;2022-12-20T02:31:42;101033.2;;;9.24;100.00
54856;BME280;40748;53.168;5.800;2022-12-20T02:34:11;101033.2;;;9.25;100.00
54856;BME280;40748;53.168;5.800;2022-12-20T02:36:41;101033.64;;;9.15;100.00
54856;BME280;40748;53.168;5.800;2022-12-20T02:39:11;101033.4;;;9.16;100.00
54856;BME280;40748;53.168;5.800;2022-12-20T02:44:12;101023.05;;;9.14;100.00
54856;BME280;40748;53.168;5.800;2022-12-20T02:46:41;101018.26999999999;;;9.23;100.00
54856;BME280;40748;53.168;5.800;2022-12-20T02:49:12;101004.98999999999;;;9.15;100.00
54856;BME280;40748;53.168;5.800;2022-12-20T02:51:41;101003.38;;;9.10;100.00
54856;BME280;40748;53.168;5.800;2022-12-20T02:54:11;100997.27;;;9.11;100.00
54856;BME280;40748;53.168;5.800;2022-12-20T02:56:42;100994.84;;;9.18;100.00
54856;BME280;40748;53.168;5.800;2022-12-20T02:59:12;101003.94;;;9.09;100.00
54856;BME280;40748;53.168;5.800;2022-12-20T03:01:42;100998.14;;;9.14;100.00
54856;BME280;40748;53.168;5.800;2022-12-20T03:04:11;101001.26000000001;;;9.11;100.00
54856;BME280;40748;53.168;5.800;2022-12-20T03:09:11;100996.98;;;9.10;100.00
54856;BME280;40748;53.168;5.800;2022-12-20T03:11:41;101003.76;;;9.14;100.00
54856;BME280;40748;53.168;5.800;2022-12-20T03:14:11;101009.83;;;9.08;100.00
54856;BME280;40748;53.168;5.800;2022-12-20T03:16:41;101001.0;;;9.10;100.00
54856;BME280;40748;53.168;5.800;2022-12-20T03:19:11;101012.69;;;9.14;100.00
54856;BME280;40748;53.168;5.800;2022-12-20T03:21:41;101017.7;;;9.11;100.00
54856;BME280;40748;53.168;5.800;2022-12-20T03:24:11;101012.87999999999;;;9.14;100.00
54856;BME280;40748;53.168;5.800;2022-12-20T03:26:41;101019.05;;;9.10;100.00
54856;BME280;40748;53.168;5.800;2022-12-20T03:29:11;101010.24;;;9.08;100.00
54856;BME280;40748;53.168;5.800;2022-12-20T03:31:41;101012.23;;;9.14;100.00
54856;BME280;40748;53.168;5.800;2022-12-20T03:34:11;101008.89;;;9.12;100.00
54856;BME280;40748;53.168;5.800;2022-12-20T03:36:41;101016.90999999999;;;9.22;100.00
54856;BME280;40748;53.168;5.800;2022-12-20T03:39:11;101016.27;;;9.15;100.00
54856;BME280;40748;53.168;5.800;2022-12-20T03:41:41;101019.97;;;9.14;100.00
54856;BME280;40748;53.168;5.800;2022-12-20T03:44:11;101023.46;;;9.08;100.00
54856;BME280;40748;53.168;5.800;2022-12-20T03:46:41;101013.56;;;9.14;100.00
54856;BME280;40748;53.168;5.800;2022-12-20T03:49:11;101011.45;;;9.19;100.00
54856;BME280;40748;53.168;5.800;2022-12-20T03:51:41;101013.44;;;9.20;100.00
54856;BME280;40748;53.168;5.800;2022-12-20T03:54:11;101007.64;;;9.16;100.00
54856;BME280;40748;53.168;5.800;2022-12-20T03:56:41;101001.68;;;9.15;100.00
54856;BME280;40748;53.168;5.800;2022-12-20T03:59:11;100997.2;;;9.17;100.00
54856;BME280;40748;53.168;5.800;2022-12-20T04:01:41;100995.46;;;9.13;100.00
54856;BME280;40748;53.168;5.800;2022-12-20T04:04:11;101000.33;;;9.15;100.00
54856;BME280;40748;53.168;5.800;2022-12-20T04:06:41;100984.07999999999;;;9.10;100.00
54856;BME280;40748;53.168;5.800;2022-12-20T04:11:41;100992.83;;;9.11;100.00
54856;BME280;40748;53.168;5.800;2022-12-20T04:14:11;100993.01000000001;;;9.12;100.00
54856;BME280;40748;53.168;5.800;2022-12-20T04:16:41;101000.01999999999;;;9.16;100.00
54856;BME280;40748;53.168;5.800;2022-12-20T04:19:11;100989.28;;;9.11;100.00
54856;BME280;40748;53.168;5.800;2022-12-20T04:21:41;100985.83;;;9.05;100.00
54856;BME280;40748;53.168;5.800;2022-12-20T04:24:11;100980.40999999999;;;9.11;100.00
54856;BME280;40748;53.168;5.800;2022-12-20T04:26:41;100976.93000000001;;;9.18;100.00
54856;BME280;40748;53.168;5.800;2022-12-20T04:29:11;100977.14;;;9.15;100.00
54856;BME280;40748;53.168;5.800;2022-12-20T04:31:41;100976.36;;;9.18;100.00
54856;BME280;40748;53.168;5.800;2022-12-20T04:36:41;100974.89;;;9.17;100.00
54856;BME280;40748;53.168;5.800;2022-12-20T04:39:11;100973.15;;;9.20;100.00
54856;BME280;40748;53.168;5.800;2022-12-20T04:41:41;100972.91;;;9.24;100.00
54856;BME280;40748;53.168;5.800;2022-12-20T04:44:11;100968.9;;;9.25;100.00
54856;BME280;40748;53.168;5.800;2022-12-20T04:46:41;100971.62;;;9.22;100.00
54856;BME280;40748;53.168;5.800;2022-12-20T04:49:11;100959.83;;;9.25;100.00
54856;BME280;40748;53.168;5.800;2022-12-20T04:51:41;100956.03;;;9.22;100.00
54856;BME280;40748;53.168;5.800;2022-12-20T04:54:11;100949.87;;;9.25;100.00
54856;BME280;40748;53.168;5.800;2022-12-20T04:56:41;100946.44;;;9.23;100.00
54856;BME280;40748;53.168;5.800;2022-12-20T04:59:11;100951.89;;;9.21;100.00
54856;BME280;40748;53.168;5.800;2022-12-20T05:01:41;100951.19;;;9.29;100.00
54856;BME280;40748;53.168;5.800;2022-12-20T05:04:11;100950.87;;;9.31;100.00
54856;BME280;40748;53.168;5.800;2022-12-20T05:09:11;100952.94;;;9.33;100.00
54856;BME280;40748;53.168;5.800;2022-12-20T05:11:41;100949.19;;;9.35;100.00
54856;BME280;40748;53.168;5.800;2022-12-20T05:14:11;100946.96;;;9.29;100.00
54856;BME280;40748;53.168;5.800;2022-12-20T05:16:41;100943.09;;;9.36;100.00
54856;BME280;40748;53.168;5.800;2022-12-20T05:19:11;100938.45;;;9.41;100.00
54856;BME280;40748;53.168;5.800;2022-12-20T05:21:41;100936.22;;;9.35;100.00
54856;BME280;40748;53.168;5.800;2022-12-20T05:24:11;100930.06;;;9.37;100.00
54856;BME280;40748;53.168;5.800;2022-12-20T05:26:41;100935.26000000001;;;9.42;100.00
54856;BME280;40748;53.168;5.800;2022-12-20T05:29:11;100921.25;;;9.43;100.00
54856;BME280;40748;53.168;5.800;2022-12-20T05:31:41;100921.25;;;9.47;100.00
54856;BME280;40748;53.168;5.800;2022-12-20T05:39:11;100924.01999999999;;;9.43;100.00
54856;BME280;40748;53.168;5.800;2022-12-20T05:41:41;100924.01999999999;;;9.45;100.00
54856;BME280;40748;53.168;5.800;2022-12-20T05:44:11;100921.37;;;9.42;100.00
54856;BME280;40748;53.168;5.800;2022-12-20T05:49:11;100916.71;;;9.48;100.00
54856;BME280;40748;53.168;5.800;2022-12-20T05:51:41;100910.53;;;9.43;100.00
54856;BME280;40748;53.168;5.800;2022-12-20T05:54:11;100915.9;;;9.51;100.00
54856;BME280;40748;53.168;5.800;2022-12-20T05:56:41;100917.78;;;9.50;100.00
54856;BME280;40748;53.168;5.800;2022-12-20T05:59:11;100913.43000000001;;;9.46;100.00
54856;BME280;40748;53.168;5.800;2022-12-20T06:01:41;100905.9;;;9.50;100.00
54856;BME280;40748;53.168;5.800;2022-12-20T06:04:11;100910.0;;;9.55;100.00
54856;BME280;40748;53.168;5.800;2022-12-20T06:09:11;100908.53;;;9.54;100.00
54856;BME280;40748;53.168;5.800;2022-12-20T06:11:41;100906.62999999999;;;9.62;100.00
54856;BME280;40748;53.168;5.800;2022-12-20T06:14:11;100905.5;;;9.66;100.00
54856;BME280;40748;53.168;5.800;2022-12-20T06:16:41;100905.90999999999;;;9.72;100.00
54856;BME280;40748;53.168;5.800;2022-12-20T06:19:11;100914.51;;;9.74;100.00
54856;BME280;40748;53.168;5.800;2022-12-20T06:21:41;100911.01999999999;;;9.70;100.00
54856;BME280;40748;53.168;5.800;2022-12-20T06:24:11;100901.4;;;9.71;100.00
54856;BME280;40748;53.168;5.800;2022-12-20T06:26:41;100916.53;;;9.66;100.00
54856;BME280;40748;53.168;5.800;2022-12-20T06:29:11;100905.21;;;9.71;100.00
54856;BME280;40748;53.168;5.800;2022-12-20T06:31:41;100917.95;;;9.69;100.00
54856;BME280;40748;53.168;5.800;2022-12-20T06:34:11;100913.95;;;9.75;100.00
54856;BME280;40748;53.168;5.800;2022-12-20T06:36:41;100909.23;;;9.83;100.00
54856;BME280;40748;53.168;5.800;2022-12-20T06:39:11;100903.83;;;9.74;100.00
54856;BME280;40748;53.168;5.800;2022-12-20T06:41:41;100893.7;;;9.86;100.00
54856;BME280;40748;53.168;5.800;2022-12-20T06:46:41;100872.34;;;9.90;100.00
54856;BME280;40748;53.168;5.800;2022-12-20T06:49:11;100894.76;;;9.87;100.00
54856;BME280;40748;53.168;5.800;2022-12-20T06:51:41;100889.11;;;9.85;100.00
54856;BME280;40748;53.168;5.800;2022-12-20T06:54:11;100891.43000000001;;;9.95;100.00
54856;BME280;40748;53.168;5.800;2022-12-20T06:56:41;100891.22;;;9.97;100.00
54856;BME280;40748;53.168;5.800;2022-12-20T06:59:11;100887.21;;;9.94;100.00
54856;BME280;40748;53.168;5.800;2022-12-20T07:01:41;100885.03;;;9.91;100.00
54856;BME280;40748;53.168;5.800;2022-12-20T07:04:11;100887.2;;;9.98;100.00
54856;BME280;40748;53.168;5.800;2022-12-20T07:06:41;100893.83;;;9.96;100.00
54856;BME280;40748;53.168;5.800;2022-12-20T07:09:11;100890.67;;;9.87;100.00
54856;BME280;40748;53.168;5.800;2022-12-20T07:11:41;100878.28;;;9.90;100.00
54856;BME280;40748;53.168;5.800;2022-12-20T07:16:41;100890.12;;;9.91;100.00
54856;BME280;40748;53.168;5.800;2022-12-20T07:21:41;100891.69;;;9.92;100.00
54856;BME280;40748;53.168;5.800;2022-12-20T07:24:11;100897.19;;;9.95;100.00
54856;BME280;40748;53.168;5.800;2022-12-20T07:26:42;100887.09;;;9.94;100.00
54856;BME280;40748;53.168;5.800;2022-12-20T07:29:11;100885.47;;;9.91;100.00
54856;BME280;40748;53.168;5.800;2022-12-20T07:31:41;100880.05;;;9.95;100.00
54856;BME280;40748;53.168;5.800;2022-12-20T07:34:11;100884.92;;;9.99;100.00
54856;BME280;40748;53.168;5.800;2022-12-20T07:39:28;100886.40000000001;;;9.95;100.00
54856;BME280;40748;53.168;5.800;2022-12-20T07:41:58;100886.84;;;9.97;100.00
54856;BME280;40748;53.168;5.800;2022-12-20T07:44:28;100886.72;;;9.96;100.00
54856;BME280;40748;53.168;5.800;2022-12-20T07:46:58;100901.45;;;9.98;100.00
54856;BME280;40748;53.168;5.800;2022-12-20T07:49:28;100892.6;;;9.93;100.00
54856;BME280;40748;53.168;5.800;2022-12-20T07:51:58;100890.89;;;9.84;100.00
54856;BME280;40748;53.168;5.800;2022-12-20T07:54:29;100895.86;;;9.94;100.00
54856;BME280;40748;53.168;5.800;2022-12-20T07:57:00;100896.96;;;10.01;100.00
54856;BME280;40748;53.168;5.800;2022-12-20T07:59:29;100891.65000000001;;;9.98;100.00
54856;BME280;40748;53.168;5.800;2022-12-20T08:01:59;100890.01;;;9.97;100.00
54856;BME280;40748;53.168;5.800;2022-12-20T08:04:28;100891.35;;;9.92;100.00
54856;BME280;40748;53.168;5.800;2022-12-20T08:06:58;100888.69;;;9.91;100.00
54856;BME280;40748;53.168;5.800;2022-12-20T08:09:29;100889.28;;;9.92;100.00
54856;BME280;40748;53.168;5.800;2022-12-20T08:11:59;100888.5;;;9.95;100.00
54856;BME280;40748;53.168;5.800;2022-12-20T08:14:28;100885.05;;;9.89;100.00
54856;BME280;40748;53.168;5.800;2022-12-20T08:16:58;100876.93000000001;;;9.90;100.00
54856;BME280;40748;53.168;5.800;2022-12-20T08:19:28;100864.9;;;9.93;100.00
54856;BME280;40748;53.168;5.800;2022-12-20T08:21:58;100870.29;;;9.91;100.00
54856;BME280;40748;53.168;5.800;2022-12-20T08:24:28;100870.29;;;9.88;100.00
54856;BME280;40748;53.168;5.800;2022-12-20T08:26:58;100867.21;;;9.77;100.00
54856;BME280;40748;53.168;5.800;2022-12-20T08:29:28;100879.06;;;9.83;100.00
54856;BME280;40748;53.168;5.800;2022-12-20T08:31:58;100872.34;;;9.82;100.00
54856;BME280;40748;53.168;5.800;2022-12-20T08:39:29;100866.85;;;9.94;100.00
54856;BME280;40748;53.168;5.800;2022-12-20T08:41:58;100863.54;;;9.89;100.00
54856;BME280;40748;53.168;5.800;2022-12-20T08:44:28;100876.22;;;9.87;100.00
54856;BME280;40748;53.168;5.800;2022-12-20T08:46:58;100871.01;;;9.97;100.00
54856;BME280;40748;53.168;5.800;2022-12-20T08:49:28;100868.62999999999;;;9.94;100.00
54856;BME280;40748;53.168;5.800;2022-12-20T08:51:58;100872.36;;;9.99;100.00
54856;BME280;40748;53.168;5.800;2022-12-20T08:54:28;100867.78;;;10.03;100.00
54856;BME280;40748;53.168;5.800;2022-12-20T08:56:58;100858.92;;;9.93;100.00
54856;BME280;40748;53.168;5.800;2022-12-20T08:59:29;100856.54;;;10.04;100.00
54856;BME280;40748;53.168;5.800;2022-12-20T09:01:58;100856.54;;;10.05;100.00
54856;BME280;40748;53.168;5.800;2022-12-20T09:04:28;100857.74;;;10.12;100.00
54856;BME280;40748;53.168;5.800;2022-12-20T09:09:28;100858.8;;;10.07;100.00
54856;BME280;40748;53.168;5.800;2022-12-20T09:11:58;100861.92;;;10.09;100.00
54856;BME280;40748;53.168;5.800;2022-12-20T09:14:28;100861.92;;;10.17;100.00
54856;BME280;40748;53.168;5.800;2022-12-20T09:16:58;100856.28;;;10.14;100.00
54856;BME280;40748;53.168;5.800;2022-12-20T09:21:58;100855.62999999999;;;10.13;100.00
54856;BME280;40748;53.168;5.800;2022-12-20T09:24:28;100847.31;;;10.16;100.00
54856;BME280;40748;53.168;5.800;2022-12-20T09:26:58;100847.31;;;10.14;100.00
54856;BME280;40748;53.168;5.800;2022-12-20T09:29:28;100857.75;;;10.11;100.00
54856;BME280;40748;53.168;5.800;2022-12-20T09:34:28;100844.15000000001;;;10.09;100.00
54856;BME280;40748;53.168;5.800;2022-12-20T09:36:58;100834.3;;;10.12;100.00
54856;BME280;40748;53.168;5.800;2022-12-20T09:39:28;100826.2;;;10.15;100.00
54856;BME280;40748;53.168;5.800;2022-12-20T09:41:58;100832.96;;;10.16;100.00
54856;BME280;40748;53.168;5.800;2022-12-20T09:44:30;100843.56;;;10.13;100.00
54856;BME280;40748;53.168;5.800;2022-12-20T09:47:00;100851.01;;;10.16;100.00
54856;BME280;40748;53.168;5.800;2022-12-20T09:49:29;100855.48999999999;;;10.22;100.00
54856;BME280;40748;53.168;5.800;2022-12-20T09:54:30;100855.22;;;10.26;100.00
54856;BME280;40748;53.168;5.800;2022-12-20T09:56:59;100853.42000000001;;;10.22;100.00
54856;BME280;40748;53.168;5.800;2022-12-20T09:59:28;100858.2;;;10.16;100.00
54856;BME280;40748;53.168;5.800;2022-12-20T10:01:58;100857.54;;;10.33;100.00
54856;BME280;40748;53.168;5.800;2022-12-20T10:04:29;100856.95;;;10.31;100.00
54856;BME280;40748;53.168;5.800;2022-12-20T10:07:03;100869.09000000001;;;10.28;100.00
54856;BME280;40748;53.168;5.800;2022-12-20T10:09:37;100862.87;;;10.30;100.00
54856;BME280;40748;53.168;5.800;2022-12-20T10:44:57;100827.4;;;10.35;100.00
54856;BME280;40748;53.168;5.800;2022-12-20T10:47:33;100831.17;;;10.30;100.00
54856;BME280;40748;53.168;5.800;2022-12-20T10:50:06;100831.87000000001;;;10.33;100.00
54856;BME280;40748;53.168;5.800;2022-12-20T10:54:57;100817.8;;;10.36;100.00
54856;BME280;40748;53.168;5.800;2022-12-20T10:57:28;100826.03;;;10.38;100.00
54856;BME280;40748;53.168;5.800;2022-12-20T10:59:58;100833.23000000001;;;10.36;100.00
54856;BME280;40748;53.168;5.800;2022-12-20T11:01:35;100827.67;;;10.36;100.00
54856;BME280;40748;53.168;5.800;2022-12-20T11:02:28;100827.67;;;10.38;100.00
54856;BME280;40748;53.168;5.800;2022-12-20T11:05:02;100830.66;;;10.36;100.00
54856;BME280;40748;53.168;5.800;2022-12-20T11:58:53;100816.17;;;10.24;100.00
54856;BME280;40748;53.168;5.800;2022-12-20T12:01:23;100809.12;;;10.23;100.00
54856;BME280;40748;53.168;5.800;2022-12-20T12:03:56;100811.35;;;10.25;100.00
54856;BME280;40748;53.168;5.800;2022-12-20T12:06:22;100815.64;;;10.17;100.00
54856;BME280;40748;53.168;5.800;2022-12-20T12:08:52;100806.15000000001;;;10.21;100.00
54856;BME280;40748;53.168;5.800;2022-12-20T12:11:23;100810.65;;;10.20;100.00
54856;BME280;40748;53.168;5.800;2022-12-20T12:13:51;100815.08;;;10.19;100.00
54856;BME280;40748;53.168;5.800;2022-12-20T12:16:23;100809.59;;;10.25;100.00
54856;BME280;40748;53.168;5.800;2022-12-20T12:18:51;100808.4;;;10.20;100.00
54856;BME280;40748;53.168;5.800;2022-12-20T12:21:22;100810.88;;;10.24;100.00
54856;BME280;40748;53.168;5.800;2022-12-20T12:23:56;100810.42;;;10.18;100.00
54856;BME280;40748;53.168;5.800;2022-12-20T12:26:23;100805.57;;;10.24;100.00
54856;BME280;40748;53.168;5.800;2022-12-20T12:28:53;100806.02;;;10.25;100.00
54856;BME280;40748;53.168;5.800;2022-12-20T13:11:27;100794.72;;;10.15;100.00
54856;BME280;40748;53.168;5.800;2022-12-20T13:16:25;100792.54;;;10.22;100.00
54856;BME280;40748;53.168;5.800;2022-12-20T13:21:29;100797.81;;;10.16;100.00
54856;BME280;40748;53.168;5.800;2022-12-20T13:28:53;100803.64;;;10.19;100.00
54856;BME280;40748;53.168;5.800;2022-12-20T13:31:29;100801.48000000001;;;10.21;100.00
54856;BME280;40748;53.168;5.800;2022-12-20T13:36:32;100804.88;;;10.23;100.00
54856;BME280;40748;53.168;5.800;2022-12-20T13:43:53;100802.12;;;10.34;100.00
54856;BME280;40748;53.168;5.800;2022-12-20T13:46:24;100812.59999999999;;;10.28;100.00
54856;BME280;40748;53.168;5.800;2022-12-20T13:48:54;100804.19;;;10.25;100.00
54856;BME280;40748;53.168;5.800;2022-12-20T13:51:24;100800.59;;;10.26;100.00
54856;BME280;40748;53.168;5.800;2022-12-20T13:53:54;100807.1;;;10.21;100.00
54856;BME280;40748;53.168;5.800;2022-12-20T13:56:30;100807.1;;;10.26;100.00
54856;BME280;40748;53.168;5.800;2022-12-20T14:01:24;100815.12;;;10.23;100.00
54856;BME280;40748;53.168;5.800;2022-12-20T14:03:53;100817.02;;;10.32;100.00
54856;BME280;40748;53.168;5.800;2022-12-20T14:06:24;100812.48000000001;;;10.31;100.00
54856;BME280;40748;53.168;5.800;2022-12-20T14:08:53;100812.28;;;10.24;100.00
54856;BME280;40748;53.168;5.800;2022-12-20T14:11:25;100820.14;;;10.26;100.00
54856;BME280;40748;53.168;5.800;2022-12-20T14:12:35;100823.71;;;10.26;100.00
54856;BME280;40748;53.168;5.800;2022-12-20T14:13:54;100823.71;;;10.30;100.00
54856;BME280;40748;53.168;5.800;2022-12-20T14:16:24;100818.8;;;10.21;100.00
54856;BME280;40748;53.168;5.800;2022-12-20T14:18:59;100822.52;;;10.32;100.00
54856;BME280;40748;53.168;5.800;2022-12-20T14:21:23;100827.14;;;10.31;100.00
54856;BME280;40748;53.168;5.800;2022-12-20T14:23:54;100833.59;;;10.38;100.00
54856;BME280;40748;53.168;5.800;2022-12-20T14:26:24;100821.83;;;10.40;100.00
54856;BME280;40748;53.168;5.800;2022-12-20T14:28:54;100827.56000000001;;;10.34;100.00
54856;BME280;40748;53.168;5.800;2022-12-20T14:31:24;100833.48;;;10.35;100.00
54856;BME280;40748;53.168;5.800;2022-12-20T14:34:01;100835.63;;;10.36;100.00
54856;BME280;40748;53.168;5.800;2022-12-20T14:36:24;100834.92;;;10.31;100.00
54856;BME280;40748;53.168;5.800;2022-12-20T14:41:32;100837.45999999999;;;10.36;100.00
54856;BME280;40748;53.168;5.800;2022-12-20T14:43:54;100832.56999999999;;;10.34;100.00
54856;BME280;40748;53.168;5.800;2022-12-20T14:46:23;100826.73;;;10.35;100.00
54856;BME280;40748;53.168;5.800;2022-12-20T14:51:23;100832.04;;;10.39;100.00
54856;BME280;40748;53.168;5.800;2022-12-20T14:56:23;100839.12;;;10.32;100.00
54856;BME280;40748;53.168;5.800;2022-12-20T14:59:02;100839.12;;;10.36;100.00
54856;BME280;40748;53.168;5.800;2022-12-20T15:01:24;100841.89;;;10.32;100.00
54856;BME280;40748;53.168;5.800;2022-12-20T15:03:54;100840.26;;;10.33;100.00
54856;BME280;40748;53.168;5.800;2022-12-20T15:06:31;100846.0;;;10.21;100.00
54856;BME280;40748;53.168;5.800;2022-12-20T15:08:53;100852.82999999999;;;10.26;100.00
54856;BME280;40748;53.168;5.800;2022-12-20T15:11:23;100851.79000000001;;;10.23;100.00
54856;BME280;40748;53.168;5.800;2022-12-20T15:13:53;100845.51;;;10.31;100.00
54856;BME280;40748;53.168;5.800;2022-12-20T15:16:24;100847.19;;;10.32;100.00
54856;BME280;40748;53.168;5.800;2022-12-20T15:18:54;100846.81;;;10.31;100.00
54856;BME280;40748;53.168;5.800;2022-12-20T15:21:26;100848.1;;;10.28;100.00
54856;BME280;40748;53.168;5.800;2022-12-20T15:23:54;100843.86;;;10.23;100.00
54856;BME280;40748;53.168;5.800;2022-12-20T15:26:24;100851.28;;;10.27;100.00
54856;BME280;40748;53.168;5.800;2022-12-20T15:28:53;100851.08;;;10.23;100.00
54856;BME280;40748;53.168;5.800;2022-12-20T15:31:24;100850.62000000001;;;10.24;100.00
54856;BME280;40748;53.168;5.800;2022-12-20T15:33:53;100854.4;;;10.16;100.00
54856;BME280;40748;53.168;5.800;2022-12-20T15:36:24;100859.07999999999;;;10.13;100.00
54856;BME280;40748;53.168;5.800;2022-12-20T15:38:54;100860.1;;;10.17;100.00
54856;BME280;40748;53.168;5.800;2022-12-20T15:41:24;100860.1;;;10.10;100.00
54856;BME280;40748;53.168;5.800;2022-12-20T15:43:54;100858.17;;;10.13;100.00
54856;BME280;40748;53.168;5.800;2022-12-20T15:46:23;100858.17;;;10.10;100.00
54856;BME280;40748;53.168;5.800;2022-12-20T15:48:54;100864.22;;;10.13;100.00
54856;BME280;40748;53.168;5.800;2022-12-20T15:51:26;100860.33;;;10.08;100.00
54856;BME280;40748;53.168;5.800;2022-12-20T15:53:53;100862.51999999999;;;10.11;100.00
54856;BME280;40748;53.168;5.800;2022-12-20T15:56:24;100867.24;;;10.08;100.00
54856;BME280;40748;53.168;5.800;2022-12-20T15:58:53;100865.66;;;10.12;100.00
54856;BME280;40748;53.168;5.800;2022-12-20T16:01:24;100865.59;;;10.05;100.00
54856;BME280;40748;53.168;5.800;2022-12-20T16:06:23;100864.65;;;10.10;100.00
54856;BME280;40748;53.168;5.800;2022-12-20T16:08:53;100857.61;;;9.99;100.00
54856;BME280;40748;53.168;5.800;2022-12-20T16:11:24;100867.38;;;10.04;100.00
54856;BME280;40748;53.168;5.800;2022-12-20T16:13:54;100869.61;;;10.05;100.00
54856;BME280;40748;53.168;5.800;2022-12-20T16:16:24;100869.34;;;9.99;100.00